Time;durP1;ratioP1;P1;durP2;ratioP2;P2;SDS_P1;SDS_P2;PMS_P1;PMS_P2;Temp;Humidity;BMP_temperature;BMP_pressure;BME280_temperature;BME280_humidity;BME280_pressure;Samples;Min_cycle;Max_cycle;Signal;HPM_P1;HPM_P2
2022/04/16 00:00:27;;;;;;;21.50;15.63;;;8.40;99.90;;;;;;5031450;28;20598;-75
2022/04/16 00:02:54;;;;;;;23.05;15.20;;;8.30;99.90;;;;;;5046444;28;20102;-75
2022/04/16 00:05:23;;;;;;;23.17;14.93;;;8.20;99.90;;;;;;5051061;28;20037;-74
2022/04/16 00:08:06;;;;;;;24.90;15.85;;;8.10;99.90;;;;;;5051209;28;20056;-75
2022/04/16 00:10:36;;;;;;;27.85;14.77;;;8.10;99.90;;;;;;5051233;28;20564;-75
2022/04/16 00:13:02;;;;;;;24.25;15.38;;;8.00;99.90;;;;;;5051389;28;20084;-75
2022/04/16 00:15:27;;;;;;;20.92;14.65;;;8.00;99.90;;;;;;5051114;28;20056;-75
2022/04/16 00:17:55;;;;;;;22.08;15.23;;;7.80;99.90;;;;;;5051114;28;20049;-75
2022/04/16 00:20:21;;;;;;;24.23;15.40;;;7.80;99.90;;;;;;5051023;28;20595;-75
2022/04/16 00:22:47;;;;;;;24.65;14.15;;;7.70;99.90;;;;;;5051287;28;20056;-75
2022/04/16 00:25:13;;;;;;;24.48;15.27;;;7.70;99.90;;;;;;5052594;28;20071;-75
2022/04/16 00:27:39;;;;;;;21.88;14.80;;;7.60;99.90;;;;;;5042986;28;20053;-74
2022/04/16 00:30:06;;;;;;;26.70;14.68;;;7.50;99.90;;;;;;5049935;28;20037;-75
2022/04/16 00:32:31;;;;;;;20.88;13.95;;;7.50;99.90;;;;;;5045708;28;20041;-75
2022/04/16 00:34:57;;;;;;;24.63;14.95;;;7.50;99.90;;;;;;5049754;28;20044;-75
2022/04/16 00:37:23;;;;;;;23.23;14.25;;;7.50;99.90;;;;;;5051043;28;20041;-75
2022/04/16 00:39:48;;;;;;;24.73;14.45;;;7.50;99.90;;;;;;5049760;28;20127;-75
2022/04/16 00:42:14;;;;;;;21.95;14.23;;;7.50;99.90;;;;;;5029568;28;20045;-75
2022/04/16 00:44:40;;;;;;;22.25;14.50;;;7.50;99.90;;;;;;5049799;28;20438;-75
2022/04/16 00:47:05;;;;;;;21.52;14.20;;;7.40;99.90;;;;;;5050810;28;20052;-75
2022/04/16 00:49:31;;;;;;;27.83;15.50;;;7.40;99.90;;;;;;5048900;28;20048;-75
2022/04/16 00:51:57;;;;;;;22.73;15.00;;;7.40;99.90;;;;;;5059857;28;20048;-75
2022/04/16 00:54:22;;;;;;;22.42;13.68;;;7.30;99.90;;;;;;5045339;28;20045;-75
2022/04/16 00:56:48;;;;;;;22.88;15.38;;;7.70;99.90;;;;;;5030075;28;20088;-75
2022/04/16 00:59:14;;;;;;;19.88;13.77;;;7.20;99.90;;;;;;5049654;28;20057;-75
2022/04/16 01:01:39;;;;;;;25.13;15.65;;;7.10;99.90;;;;;;5049925;28;20064;-75
2022/04/16 01:04:05;;;;;;;24.95;14.95;;;7.10;99.90;;;;;;5050982;28;20033;-75
2022/04/16 01:06:38;;;;;;;25.98;15.88;;;7.00;99.90;;;;;;5048958;28;20110;-75
2022/04/16 01:09:05;;;;;;;23.40;15.43;;;7.00;99.90;;;;;;5048650;28;20065;-74
2022/04/16 01:11:33;;;;;;;26.55;15.95;;;7.00;99.90;;;;;;5049442;28;20123;-74
2022/04/16 01:14:00;;;;;;;25.27;16.02;;;6.90;99.90;;;;;;5050928;28;20084;-75
2022/04/16 01:16:29;;;;;;;25.10;16.40;;;6.90;99.90;;;;;;5049546;28;20041;-76
2022/04/16 01:18:55;;;;;;;23.45;15.13;;;6.80;99.90;;;;;;5050715;28;20041;-74
2022/04/16 01:21:21;;;;;;;25.33;15.38;;;6.80;99.90;;;;;;5049433;28;20132;-74
2022/04/16 01:23:47;;;;;;;24.75;16.02;;;6.70;99.90;;;;;;5041282;28;20133;-75
2022/04/16 01:26:13;;;;;;;26.90;16.27;;;6.70;99.90;;;;;;5049748;28;20048;-75
2022/04/16 01:28:40;;;;;;;25.80;16.15;;;6.70;99.90;;;;;;5049438;28;20508;-75
2022/04/16 01:31:06;;;;;;;29.30;17.33;;;6.60;99.90;;;;;;5049102;28;20051;-75
2022/04/16 01:33:32;;;;;;;25.42;16.17;;;6.60;99.90;;;;;;5050532;28;20040;-75
2022/04/16 01:35:58;;;;;;;24.58;15.90;;;6.60;99.90;;;;;;5049757;28;20041;-74
2022/04/16 01:38:27;;;;;;;25.25;15.93;;;6.50;99.90;;;;;;5033515;28;20139;-75
2022/04/16 01:40:56;;;;;;;23.60;15.65;;;6.50;99.90;;;;;;5047941;28;20049;-75
2022/04/16 01:43:21;;;;;;;26.58;15.20;;;6.40;99.90;;;;;;5048591;28;20464;-75
2022/04/16 01:45:49;;;;;;;25.60;16.00;;;6.40;99.90;;;;;;5047325;28;20073;-75
2022/04/16 01:48:16;;;;;;;26.50;16.08;;;6.40;99.90;;;;;;5049713;28;20033;-74
2022/04/16 01:50:42;;;;;;;25.20;16.13;;;6.30;99.90;;;;;;5048393;28;20087;-74
2022/04/16 01:53:07;;;;;;;26.58;16.02;;;6.30;99.90;;;;;;5050276;28;20400;-75
2022/04/16 01:55:33;;;;;;;26.08;15.45;;;6.20;99.90;;;;;;5050192;28;20044;-75
2022/04/16 01:57:58;;;;;;;26.40;15.77;;;6.20;99.90;;;;;;5047556;28;20427;-75
2022/04/16 02:00:24;;;;;;;24.20;16.17;;;6.20;99.90;;;;;;5049648;28;20136;-75
2022/04/16 02:02:50;;;;;;;28.88;16.85;;;6.20;99.90;;;;;;5048475;28;20041;-74
2022/04/16 02:05:16;;;;;;;27.63;16.88;;;6.10;99.90;;;;;;5045404;28;20037;-75
2022/04/16 02:07:42;;;;;;;25.50;15.40;;;6.10;99.90;;;;;;5050112;28;20033;-75
2022/04/16 02:10:09;;;;;;;27.58;16.67;;;6.10;99.90;;;;;;5050068;28;20505;-75
2022/04/16 02:12:38;;;;;;;24.65;15.43;;;6.10;99.90;;;;;;5051875;28;20053;-74
2022/04/16 02:15:05;;;;;;;28.88;16.90;;;6.10;99.90;;;;;;5052980;28;20061;-75
2022/04/16 02:17:32;;;;;;;26.20;16.23;;;6.10;99.90;;;;;;5053377;28;20566;-74
2022/04/16 02:19:58;;;;;;;30.85;17.67;;;6.10;99.90;;;;;;5044820;28;20045;-75
2022/04/16 02:22:24;;;;;;;26.20;16.92;;;6.20;99.90;;;;;;5053802;28;20500;-75
2022/04/16 02:24:49;;;;;;;27.90;17.70;;;6.20;99.90;;;;;;5053716;28;20488;-75
2022/04/16 02:27:15;;;;;;;30.65;18.92;;;6.30;99.90;;;;;;5051897;28;20053;-75
2022/04/16 02:29:41;;;;;;;29.20;18.20;;;6.40;99.90;;;;;;5053071;28;20451;-75
2022/04/16 02:32:07;;;;;;;31.05;19.00;;;6.40;99.90;;;;;;5045251;28;20511;-75
2022/04/16 02:34:33;;;;;;;30.65;19.20;;;6.50;99.90;;;;;;5044930;28;20061;-74
2022/04/16 02:36:59;;;;;;;30.65;20.02;;;6.60;99.90;;;;;;5051415;28;20099;-75
2022/04/16 02:39:25;;;;;;;32.40;19.70;;;6.70;99.90;;;;;;5051231;28;20056;-75
2022/04/16 02:41:51;;;;;;;36.65;21.58;;;7.00;99.90;;;;;;5047364;28;20041;-75
2022/04/16 02:47:06;;;;;;;35.75;20.02;;;6.90;99.90;;;;;;5046374;28;20049;-75
2022/04/16 02:49:43;;;;;;;31.95;19.52;;;6.90;99.90;;;;;;5048665;28;20045;-75
2022/04/16 02:52:09;;;;;;;33.53;20.25;;;7.00;99.90;;;;;;5044529;28;20044;-75
2022/04/16 02:54:35;;;;;;;33.63;18.85;;;7.00;99.90;;;;;;5052311;28;20064;-75
2022/04/16 02:57:01;;;;;;;36.00;21.00;;;7.00;99.90;;;;;;5053145;28;20045;-75
2022/04/16 02:59:27;;;;;;;33.97;19.23;;;7.10;99.90;;;;;;5053036;28;20040;-75
2022/04/16 03:01:54;;;;;;;33.47;19.80;;;7.10;99.90;;;;;;5048129;28;20484;-75
2022/04/16 03:04:19;;;;;;;33.58;19.02;;;7.20;99.90;;;;;;5051665;28;20080;-75
2022/04/16 03:06:45;;;;;;;31.38;19.45;;;7.30;99.90;;;;;;5052433;28;20773;-75
2022/04/16 03:09:10;;;;;;;32.92;20.38;;;7.30;99.90;;;;;;5050540;28;20045;-75
2022/04/16 03:11:36;;;;;;;33.47;21.50;;;7.40;99.90;;;;;;5052958;28;20124;-75
2022/04/16 03:17:31;;;;;;;34.83;21.77;;;7.60;99.90;;;;;;5052483;28;20052;-75
2022/04/16 03:19:32;;;;;;;33.67;21.92;;;7.50;99.90;;;;;;5052291;28;20056;-75
2022/04/16 03:21:58;;;;;;;37.30;23.90;;;7.60;99.90;;;;;;5051635;28;20037;-75
2022/04/16 03:24:24;;;;;;;39.42;24.50;;;7.10;99.90;;;;;;5051496;28;20506;-75
2022/04/16 03:26:49;;;;;;;38.72;23.42;;;7.60;99.90;;;;;;5052065;28;20041;-75
2022/04/16 03:29:15;;;;;;;37.58;23.55;;;7.70;99.90;;;;;;5046306;28;20145;-75
2022/04/16 03:31:41;;;;;;;41.40;24.33;;;7.70;99.90;;;;;;5042399;28;20104;-75
2022/04/16 03:34:06;;;;;;;39.83;23.92;;;7.80;99.90;;;;;;5050996;28;20405;-76
2022/04/16 03:36:32;;;;;;;39.53;23.67;;;7.80;99.90;;;;;;5050215;28;20614;-75
2022/04/16 03:38:58;;;;;;;40.20;24.95;;;7.80;99.90;;;;;;5052361;28;20040;-75
2022/04/16 03:41:23;;;;;;;38.08;23.33;;;7.80;99.90;;;;;;5047681;28;20037;-75
2022/04/16 03:43:49;;;;;;;40.08;24.67;;;7.90;99.90;;;;;;5050240;28;20052;-75
2022/04/16 03:46:14;;;;;;;40.17;25.13;;;7.90;99.90;;;;;;5050118;28;20119;-75
2022/04/16 03:48:40;;;;;;;38.65;25.13;;;7.90;99.90;;;;;;5041612;28;20424;-75
2022/04/16 03:51:05;;;;;;;39.28;25.13;;;7.90;99.90;;;;;;5061658;28;20040;-75
2022/04/16 03:53:34;;;;;;;41.58;25.90;;;7.90;99.90;;;;;;5051593;28;20531;-75
2022/04/16 04:01:28;;;;;;;45.85;28.63;;;8.00;99.90;;;;;;5051137;28;20052;-75
2022/04/16 04:03:54;;;;;;;46.60;29.02;;;8.00;99.90;;;;;;5051375;28;20051;-75
2022/04/16 04:06:20;;;;;;;46.70;28.73;;;8.00;99.90;;;;;;5051723;28;20048;-75
2022/04/16 04:08:45;;;;;;;51.45;28.55;;;8.00;99.90;;;;;;5058836;28;20102;-75
2022/04/16 04:11:11;;;;;;;53.50;31.10;;;8.00;99.90;;;;;;5063360;28;20045;-75
2022/04/16 04:13:37;;;;;;;47.75;28.80;;;8.20;99.90;;;;;;5045949;28;20903;-75
2022/04/16 04:16:02;;;;;;;49.50;30.67;;;8.00;99.90;;;;;;5051232;28;20103;-75
2022/04/16 04:18:28;;;;;;;46.63;29.38;;;8.00;99.90;;;;;;5051117;28;20119;-75
2022/04/16 04:20:55;;;;;;;49.83;30.17;;;8.00;99.90;;;;;;5051552;28;20052;-75
2022/04/16 04:23:20;;;;;;;47.88;29.23;;;7.90;99.90;;;;;;5051950;28;20045;-75
2022/04/16 04:25:46;;;;;;;44.95;27.77;;;8.00;99.90;;;;;;5043091;28;20104;-75
2022/04/16 04:28:12;;;;;;;48.47;29.98;;;7.90;99.90;;;;;;5048717;28;20427;-75
2022/04/16 04:30:37;;;;;;;43.63;28.55;;;7.90;99.90;;;;;;5048036;28;20040;-75
2022/04/16 04:33:03;;;;;;;47.88;29.30;;;7.90;99.90;;;;;;5048939;28;20543;-75
2022/04/16 04:35:29;;;;;;;45.10;28.67;;;7.90;99.90;;;;;;5050017;28;20044;-75
2022/04/16 04:37:54;;;;;;;44.53;27.95;;;7.90;99.90;;;;;;5051620;28;20507;-75
2022/04/16 04:40:21;;;;;;;41.45;26.25;;;7.90;99.90;;;;;;5039327;28;20170;-75
2022/04/16 04:42:46;;;;;;;43.22;27.88;;;7.90;99.90;;;;;;5026664;28;20533;-75
2022/04/16 04:45:14;;;;;;;45.53;27.85;;;7.90;99.90;;;;;;5051219;28;20215;-75
2022/04/16 04:47:40;;;;;;;44.33;27.35;;;7.90;99.90;;;;;;5050074;28;20069;-77
2022/04/16 04:50:07;;;;;;;45.40;27.80;;;7.90;99.90;;;;;;5055156;28;20044;-76
2022/04/16 04:52:34;;;;;;;46.72;28.17;;;7.90;99.90;;;;;;5056876;28;20168;-76
2022/04/16 04:55:00;;;;;;;47.80;28.73;;;7.90;99.90;;;;;;5032734;28;20041;-76
2022/04/16 04:57:27;;;;;;;48.63;28.85;;;7.90;99.90;;;;;;5039752;28;20080;-76
2022/04/16 04:59:53;;;;;;;45.97;27.80;;;7.90;99.90;;;;;;5050056;28;20044;-76
2022/04/16 05:02:19;;;;;;;47.03;28.13;;;8.00;99.90;;;;;;5050885;28;20033;-76
2022/04/16 05:04:45;;;;;;;47.25;29.40;;;7.90;99.90;;;;;;5050779;28;20124;-76
2022/04/16 05:07:11;;;;;;;45.28;28.60;;;8.00;99.90;;;;;;5049130;28;20043;-76
2022/04/16 05:09:37;;;;;;;45.60;27.58;;;8.00;99.90;;;;;;5043162;28;20126;-75
2022/04/16 05:12:03;;;;;;;44.38;26.27;;;8.00;99.90;;;;;;5050920;28;20045;-76
2022/04/16 05:14:29;;;;;;;39.15;25.25;;;8.00;99.90;;;;;;5048981;28;20041;-76
2022/04/16 05:16:55;;;;;;;41.28;25.48;;;8.00;99.90;;;;;;5050803;28;20136;-76
2022/04/16 05:19:21;;;;;;;41.60;24.25;;;8.00;99.90;;;;;;5049466;28;20106;-76
2022/04/16 05:21:47;;;;;;;40.08;25.10;;;8.00;99.90;;;;;;5044237;28;20033;-76
2022/04/16 05:24:12;;;;;;;37.20;23.63;;;8.00;99.90;;;;;;5040292;28;20487;-76
2022/04/16 05:26:38;;;;;;;37.65;23.40;;;8.00;99.90;;;;;;5050361;28;20072;-76
2022/04/16 05:29:05;;;;;;;34.90;23.17;;;8.00;99.90;;;;;;5049106;28;20056;-76
2022/04/16 05:31:30;;;;;;;31.55;20.73;;;8.00;99.90;;;;;;5041816;28;20052;-75
2022/04/16 05:36:42;;;;;;;22.80;14.48;;;8.00;99.90;;;;;;5042032;28;20041;-75
2022/04/16 05:39:08;;;;;;;22.42;15.10;;;8.10;99.90;;;;;;5049434;28;20041;-75
2022/04/16 05:41:34;;;;;;;23.52;13.65;;;8.10;99.90;;;;;;5029266;28;20441;-75
2022/04/16 05:44:04;;;;;;;24.10;14.32;;;8.10;99.90;;;;;;5048303;28;20419;-74
2022/04/16 05:46:30;;;;;;;21.92;14.05;;;8.10;99.90;;;;;;5051541;28;20135;-74
2022/04/16 05:48:56;;;;;;;22.10;13.50;;;8.20;99.90;;;;;;5045272;28;20131;-75
2022/04/16 05:51:23;;;;;;;22.58;13.43;;;8.20;99.90;;;;;;5054259;28;20141;-75
2022/04/16 05:53:49;;;;;;;24.33;14.88;;;8.20;99.90;;;;;;5044833;28;20057;-76
2022/04/16 05:56:16;;;;;;;22.10;13.90;;;8.20;99.90;;;;;;5039430;28;20048;-75
2022/04/16 05:58:42;;;;;;;22.55;13.75;;;8.20;99.90;;;;;;5045619;28;20591;-75
2022/04/16 06:01:09;;;;;;;22.25;13.20;;;8.20;99.90;;;;;;5054031;28;20511;-75
2022/04/16 06:03:44;;;;;;;23.58;14.35;;;8.20;99.90;;;;;;5049118;28;20098;-75
2022/04/16 06:06:10;;;;;;;24.38;14.57;;;8.20;99.90;;;;;;5054014;28;20686;-76
2022/04/16 06:08:36;;;;;;;23.45;13.70;;;8.30;99.90;;;;;;5036383;28;20051;-75
2022/04/16 06:11:04;;;;;;;22.67;13.88;;;8.30;99.90;;;;;;5048854;28;20120;-75
2022/04/16 06:13:30;;;;;;;23.10;13.43;;;8.40;99.90;;;;;;5047057;28;20100;-75
2022/04/16 06:15:56;;;;;;;21.92;13.05;;;8.40;99.90;;;;;;5042978;28;20065;-75
2022/04/16 06:18:22;;;;;;;20.52;12.50;;;8.40;99.90;;;;;;5049098;28;20393;-75
2022/04/16 06:20:47;;;;;;;20.67;12.60;;;8.50;99.90;;;;;;5047157;28;20041;-75
2022/04/16 06:23:13;;;;;;;18.63;11.35;;;8.50;99.90;;;;;;5049637;28;22121;-75
2022/04/16 06:25:38;;;;;;;23.75;12.32;;;8.50;99.90;;;;;;5051093;28;20400;-75
2022/04/16 06:28:04;;;;;;;21.02;11.68;;;8.50;99.90;;;;;;5045176;28;20870;-75
2022/04/16 06:30:30;;;;;;;19.30;10.73;;;8.50;99.90;;;;;;5053208;28;20067;-75
2022/04/16 06:32:56;;;;;;;19.90;10.68;;;8.40;99.90;;;;;;5042088;28;20128;-76
2022/04/16 06:35:22;;;;;;;19.73;11.18;;;8.40;99.90;;;;;;5047942;28;20037;-76
2022/04/16 06:37:48;;;;;;;19.13;11.30;;;8.30;99.90;;;;;;5043070;28;20450;-76
2022/04/16 06:40:13;;;;;;;18.23;10.30;;;8.40;99.90;;;;;;5049509;28;20799;-76
2022/04/16 06:42:40;;;;;;;18.38;10.50;;;8.40;99.90;;;;;;5043128;28;20449;-77
2022/04/16 06:45:08;;;;;;;18.80;10.85;;;8.30;99.90;;;;;;5042874;28;20085;-76
2022/04/16 06:47:34;;;;;;;16.45;10.25;;;8.30;99.90;;;;;;5040721;28;20040;-76
2022/04/16 06:50:00;;;;;;;17.52;9.68;;;8.30;99.90;;;;;;5046967;28;20040;-75
2022/04/16 06:52:26;;;;;;;16.55;10.00;;;8.40;99.90;;;;;;5050479;28;20429;-76
2022/04/16 06:54:51;;;;;;;14.77;9.27;;;8.30;99.90;;;;;;5051509;28;20147;-76
2022/04/16 06:57:17;;;;;;;13.65;7.85;;;8.30;99.90;;;;;;5046831;28;20056;-76
2022/04/16 06:59:43;;;;;;;14.18;7.75;;;8.40;99.90;;;;;;5050859;28;20049;-75
2022/04/16 07:02:10;;;;;;;15.07;7.85;;;8.40;99.90;;;;;;5050663;28;20052;-75
2022/04/16 07:04:37;;;;;;;14.18;6.80;;;8.40;99.90;;;;;;5050761;28;20068;-76
2022/04/16 07:07:03;;;;;;;12.30;6.82;;;8.40;99.90;;;;;;5051766;28;20044;-75
2022/04/16 07:09:29;;;;;;;14.50;6.55;;;8.50;99.90;;;;;;5045095;28;20099;-75
2022/04/16 07:11:55;;;;;;;9.60;5.50;;;8.50;99.90;;;;;;5048279;28;20048;-83
2022/04/16 07:14:21;;;;;;;9.68;5.40;;;8.50;99.90;;;;;;5054611;28;20037;-78
2022/04/16 07:16:47;;;;;;;9.55;4.85;;;8.50;99.90;;;;;;5053148;28;20063;-76
2022/04/16 07:19:12;;;;;;;12.15;5.65;;;8.50;99.90;;;;;;5045883;28;20473;-76
2022/04/16 07:21:38;;;;;;;10.52;6.00;;;8.40;99.90;;;;;;5046558;28;20041;-77
2022/04/16 07:24:04;;;;;;;13.85;6.93;;;8.40;99.90;;;;;;5045399;28;20041;-78
2022/04/16 07:26:29;;;;;;;15.70;9.30;;;8.50;99.90;;;;;;5048592;28;20045;-79
2022/04/16 07:28:55;;;;;;;18.40;10.15;;;8.50;99.90;;;;;;5050509;28;20411;-79
2022/04/16 07:31:21;;;;;;;17.80;9.65;;;8.50;99.90;;;;;;5045247;28;20090;-81
2022/04/16 07:33:46;;;;;;;16.85;9.25;;;8.50;99.90;;;;;;5034946;28;20485;-78
2022/04/16 07:36:12;;;;;;;17.48;9.48;;;8.50;99.90;;;;;;5036277;28;20041;-75
2022/04/16 07:38:37;;;;;;;17.85;10.07;;;8.60;99.90;;;;;;5047133;28;20048;-70
2022/04/16 07:41:03;;;;;;;17.45;8.95;;;8.60;99.90;;;;;;5038276;28;20065;-79
2022/04/16 07:43:29;;;;;;;15.80;8.27;;;8.60;99.90;;;;;;5037340;28;20440;-78
2022/04/16 07:45:55;;;;;;;14.13;8.30;;;8.70;99.90;;;;;;5048681;28;20033;-78
2022/04/16 07:48:21;;;;;;;16.77;8.25;;;8.70;99.90;;;;;;5045109;28;20131;-76
2022/04/16 07:50:47;;;;;;;12.68;8.02;;;8.70;99.90;;;;;;5040503;28;20112;-77
2022/04/16 07:53:13;;;;;;;16.45;8.00;;;8.80;99.90;;;;;;5040079;28;20051;-78
2022/04/16 07:55:38;;;;;;;13.68;7.82;;;8.70;99.90;;;;;;5044881;28;20033;-75
2022/04/16 07:58:04;;;;;;;13.48;7.00;;;8.80;99.90;;;;;;5049585;28;20572;-79
2022/04/16 08:00:30;;;;;;;10.77;6.28;;;8.80;99.90;;;;;;5047090;28;20504;-75
2022/04/16 08:02:55;;;;;;;13.10;6.72;;;8.90;99.90;;;;;;5045335;28;20072;-79
2022/04/16 08:05:21;;;;;;;13.75;6.68;;;8.90;99.90;;;;;;5034521;28;20048;-78
2022/04/16 08:07:46;;;;;;;10.25;5.68;;;9.00;99.90;;;;;;5031870;28;20102;-79
2022/04/16 08:10:12;;;;;;;11.25;5.53;;;9.00;99.90;;;;;;5049469;28;20033;-79
2022/04/16 08:12:38;;;;;;;9.30;4.72;;;9.10;99.90;;;;;;5054296;28;20473;-79
2022/04/16 08:15:04;;;;;;;12.30;5.47;;;9.10;99.90;;;;;;5072623;28;20048;-79
2022/04/16 08:17:31;;;;;;;10.02;4.75;;;9.20;99.90;;;;;;5071666;28;20055;-79
2022/04/16 08:19:56;;;;;;;8.57;4.38;;;9.20;99.90;;;;;;5057503;28;20174;-79
2022/04/16 08:22:22;;;;;;;7.65;4.28;;;9.30;99.90;;;;;;5052518;28;20164;-79
2022/04/16 08:27:33;;;;;;;10.63;3.97;;;9.40;99.90;;;;;;5051892;28;20485;-78
2022/04/16 08:29:59;;;;;;;8.48;3.63;;;9.50;99.90;;;;;;5051431;28;20058;-79
2022/04/16 08:32:25;;;;;;;8.00;3.30;;;9.60;99.90;;;;;;5052098;28;20080;-79
2022/04/16 08:34:50;;;;;;;6.65;2.88;;;9.70;99.90;;;;;;5051207;28;20037;-79
2022/04/16 08:37:16;;;;;;;5.60;3.05;;;9.80;99.90;;;;;;5052312;28;20465;-79
2022/04/16 08:39:41;;;;;;;7.03;3.53;;;9.90;99.90;;;;;;5051808;28;20039;-79
2022/04/16 08:42:07;;;;;;;6.40;3.40;;;10.00;99.90;;;;;;5046978;28;20041;-79
2022/04/16 08:44:35;;;;;;;7.30;3.50;;;10.10;99.90;;;;;;5052153;28;20128;-79
2022/04/16 08:47:03;;;;;;;6.97;3.20;;;10.20;99.90;;;;;;5050879;28;20091;-79
2022/04/16 08:49:29;;;;;;;7.38;3.00;;;10.30;99.90;;;;;;5054440;28;20056;-79
2022/04/16 08:51:55;;;;;;;8.32;3.40;;;10.40;99.90;;;;;;5070807;28;20040;-79
2022/04/16 08:54:21;;;;;;;6.88;3.10;;;10.50;99.90;;;;;;5059548;28;20730;-79
2022/04/16 08:56:47;;;;;;;8.23;2.83;;;10.60;99.90;;;;;;5051549;28;20041;-79
2022/04/16 08:59:12;;;;;;;7.53;2.90;;;10.70;99.90;;;;;;5051460;28;20076;-78
2022/04/16 09:01:38;;;;;;;6.03;2.70;;;10.80;99.90;;;;;;5051387;28;20044;-79
2022/04/16 09:04:04;;;;;;;5.35;2.38;;;10.90;99.90;;;;;;5051917;28;20498;-79
2022/04/16 09:06:29;;;;;;;6.35;2.70;;;11.00;99.90;;;;;;5049646;28;20119;-79
2022/04/16 09:08:55;;;;;;;7.40;2.58;;;11.30;99.90;;;;;;5052224;28;20079;-78
2022/04/16 09:11:22;;;;;;;8.77;2.80;;;11.20;99.90;;;;;;5050228;28;20037;-79
2022/04/16 09:13:51;;;;;;;6.15;3.00;;;11.40;99.90;;;;;;5039194;28;20120;-79
2022/04/16 09:16:17;;;;;;;6.30;2.40;;;11.50;99.90;;;;;;5041410;28;20045;-79
2022/04/16 09:18:54;;;;;;;5.65;2.38;;;11.50;99.00;;;;;;5051102;28;20380;-79
2022/04/16 09:21:25;;;;;;;6.82;2.72;;;11.60;98.60;;;;;;5052571;28;20052;-79
2022/04/16 09:23:53;;;;;;;4.85;2.20;;;11.70;99.80;;;;;;5055716;28;20037;-79
2022/04/16 09:26:29;;;;;;;6.05;2.17;;;11.80;99.90;;;;;;5054365;28;20041;-79
2022/04/16 09:28:55;;;;;;;4.85;1.90;;;12.00;99.50;;;;;;5034381;28;20045;-79
2022/04/16 09:31:30;;;;;;;5.15;2.13;;;12.10;97.30;;;;;;5046849;28;20171;-79
2022/04/16 09:33:56;;;;;;;31.23;5.70;;;12.20;95.90;;;;;;5055937;28;20056;-79
2022/04/16 09:36:28;;;;;;;4.10;1.83;;;12.30;97.70;;;;;;5053652;28;20366;-79
2022/04/16 09:39:05;;;;;;;4.82;1.63;;;12.50;95.00;;;;;;5053467;28;20393;-79
2022/04/16 09:41:36;;;;;;;3.55;1.60;;;12.60;91.50;;;;;;5039848;28;20050;-79
2022/04/16 09:44:02;;;;;;;3.70;1.50;;;12.60;90.70;;;;;;5053413;28;20404;-79
2022/04/16 09:46:30;;;;;;;3.47;1.42;;;12.70;91.00;;;;;;5054687;28;20044;-79
2022/04/16 09:49:02;;;;;;;3.83;1.40;;;12.70;86.90;;;;;;5052822;28;20120;-79
2022/04/16 09:51:33;;;;;;;4.72;1.27;;;12.80;89.80;;;;;;5068579;28;20037;-79
2022/04/16 09:53:58;;;;;;;3.28;1.23;;;12.90;91.50;;;;;;5075233;28;20045;-79
2022/04/16 09:56:28;;;;;;;3.88;1.15;;;13.10;90.70;;;;;;5042980;28;20394;-79
2022/04/16 09:58:57;;;;;;;3.85;1.00;;;13.10;83.70;;;;;;5052523;28;20061;-79
2022/04/16 10:01:24;;;;;;;3.42;1.00;;;13.30;86.40;;;;;;5052806;28;20166;-79
2022/04/16 10:03:52;;;;;;;2.08;0.80;;;13.30;80.50;;;;;;5052779;28;20045;-79
2022/04/16 10:06:19;;;;;;;3.80;1.02;;;13.40;80.50;;;;;;5053385;28;20128;-79
2022/04/16 10:08:46;;;;;;;4.10;0.95;;;13.50;77.30;;;;;;5052098;28;20491;-79
2022/04/16 10:11:19;;;;;;;4.07;1.10;;;13.60;81.10;;;;;;5034125;28;20090;-79
2022/04/16 10:13:57;;;;;;;3.08;0.80;;;13.70;81.00;;;;;;5048594;28;20485;-79
2022/04/16 10:16:40;;;;;;;1.48;0.60;;;13.80;74.30;;;;;;5053785;28;20119;-79
2022/04/16 10:19:16;;;;;;;1.77;0.50;;;13.90;76.40;;;;;;5054320;28;20507;-79
2022/04/16 10:21:42;;;;;;;0.88;0.40;;;14.00;72.30;;;;;;5054159;28;20417;-79
2022/04/16 10:24:08;;;;;;;1.20;0.50;;;14.10;71.10;;;;;;5053626;28;20183;-79
2022/04/16 10:26:43;;;;;;;1.60;0.50;;;14.10;65.70;;;;;;5052662;28;20128;-79
2022/04/16 10:29:09;;;;;;;1.80;0.40;;;14.20;62.10;;;;;;5052428;28;20049;-79
2022/04/16 10:31:47;;;;;;;3.35;0.60;;;14.20;65.70;;;;;;5051622;28;20077;-78
2022/04/16 10:34:13;;;;;;;1.80;0.88;;;14.30;67.00;;;;;;5053119;28;20040;-78
2022/04/16 10:36:52;;;;;;;2.03;0.60;;;14.40;66.50;;;;;;5053432;28;20037;-79
2022/04/16 10:39:27;;;;;;;2.45;0.50;;;14.60;66.80;;;;;;5052195;28;20153;-78
2022/04/16 10:41:58;;;;;;;1.30;0.50;;;14.80;65.20;;;;;;5049000;28;20435;-78
2022/04/16 10:44:25;;;;;;;3.13;0.70;;;14.90;62.40;;;;;;5033681;28;20041;-78
2022/04/16 10:46:52;;;;;;;3.25;0.50;;;14.90;63.10;;;;;;5047590;28;20049;-78
2022/04/16 10:49:19;;;;;;;4.15;0.90;;;15.00;65.30;;;;;;5052733;28;20045;-78
2022/04/16 10:51:45;;;;;;;4.63;1.73;;;15.10;67.00;;;;;;5054949;28;20050;-78
2022/04/16 10:54:13;;;;;;;2.47;0.75;;;15.20;66.90;;;;;;5032106;28;20049;-78
2022/04/16 10:56:44;;;;;;;3.85;0.80;;;15.30;67.70;;;;;;5033378;28;20060;-78
2022/04/16 10:59:11;;;;;;;2.38;0.70;;;15.40;64.70;;;;;;5052165;28;20519;-78
2022/04/16 11:01:37;;;;;;;2.03;0.93;;;15.50;65.60;;;;;;5051653;28;20053;-78
2022/04/16 11:04:14;;;;;;;3.65;0.80;;;15.50;63.70;;;;;;5052261;28;20057;-78
2022/04/16 11:06:46;;;;;;;3.28;0.73;;;15.50;63.70;;;;;;5038314;28;20037;-78
2022/04/16 11:09:20;;;;;;;1.33;0.60;;;15.50;65.60;;;;;;5036860;28;20036;-77
2022/04/16 11:11:50;;;;;;;1.55;0.63;;;15.60;61.80;;;;;;5052794;28;20044;-77
2022/04/16 11:14:16;;;;;;;3.00;0.70;;;15.60;63.20;;;;;;5051677;28;20072;-77
2022/04/16 11:16:44;;;;;;;2.53;0.70;;;15.70;63.20;;;;;;5051568;28;20196;-77
2022/04/16 11:19:16;;;;;;;2.65;0.70;;;15.70;57.50;;;;;;5049930;28;20037;-77
2022/04/16 11:21:43;;;;;;;2.17;0.80;;;15.70;58.20;;;;;;5032371;28;20045;-77
2022/04/16 11:24:09;;;;;;;2.70;0.68;;;15.80;60.20;;;;;;5033215;28;20376;-77
2022/04/16 11:34:55;;;;;;;5.95;0.70;;;16.10;60.70;;;;;;5037493;28;20053;-78
2022/04/16 11:37:21;;;;;;;2.72;0.70;;;16.10;56.80;;;;;;5031120;28;20085;-78
2022/04/16 11:39:57;;;;;;;2.33;0.70;;;16.20;58.00;;;;;;5046690;28;20045;-77
2022/04/16 11:42:25;;;;;;;1.42;0.57;;;16.20;56.30;;;;;;5045813;28;20549;-78
2022/04/16 11:44:52;;;;;;;2.65;0.70;;;16.30;58.90;;;;;;5050573;28;20049;-78
2022/04/16 11:47:23;;;;;;;1.20;0.50;;;16.40;55.60;;;;;;5049822;28;20091;-78
2022/04/16 11:49:51;;;;;;;3.40;0.60;;;16.40;57.30;;;;;;5049964;28;20052;-78
2022/04/16 11:52:23;;;;;;;2.15;0.82;;;16.40;56.80;;;;;;5070901;28;20090;-77
2022/04/16 11:55:04;;;;;;;3.00;0.80;;;16.60;57.20;;;;;;5070747;28;20045;-77
2022/04/16 11:57:30;;;;;;;2.55;0.70;;;16.70;54.60;;;;;;5047608;28;20053;-78
2022/04/16 12:00:00;;;;;;;3.95;0.80;;;16.70;56.10;;;;;;5050718;28;20049;-78
2022/04/16 12:02:31;;;;;;;1.77;0.60;;;16.80;54.90;;;;;;5039567;28;20084;-77
2022/04/16 12:05:11;;;;;;;4.93;0.90;;;16.90;53.40;;;;;;5031008;28;20459;-78
2022/04/16 12:07:38;;;;;;;1.95;0.75;;;16.90;53.30;;;;;;5032139;28;20053;-77
2022/04/16 12:10:05;;;;;;;2.92;0.77;;;16.90;53.20;;;;;;5033855;28;20045;-77
2022/04/16 12:12:48;;;;;;;2.95;0.77;;;17.00;54.50;;;;;;5051361;28;20053;-77
2022/04/16 12:15:22;;;;;;;1.73;0.80;;;17.00;52.90;;;;;;5051357;28;20087;-77
2022/04/16 12:17:48;;;;;;;4.75;0.70;;;17.00;54.60;;;;;;5029634;28;20049;-77
2022/04/16 12:20:14;;;;;;;4.00;0.90;;;17.20;55.00;;;;;;5047476;28;20053;-77
2022/04/16 12:22:52;;;;;;;3.45;0.90;;;17.20;55.90;;;;;;5051596;28;20044;-77
2022/04/16 12:25:22;;;;;;;2.72;1.00;;;17.30;55.60;;;;;;5050941;28;20053;-77
2022/04/16 12:27:56;;;;;;;4.68;0.90;;;17.30;54.90;;;;;;5049573;28;20060;-77
2022/04/16 12:30:27;;;;;;;3.73;0.80;;;17.50;56.10;;;;;;5050924;28;20049;-77
2022/04/16 12:32:59;;;;;;;5.68;1.00;;;17.60;56.30;;;;;;5050266;28;20051;-77
2022/04/16 12:35:29;;;;;;;1.98;0.70;;;17.70;55.10;;;;;;5060137;28;20446;-76
2022/04/16 12:37:55;;;;;;;4.72;0.82;;;17.80;54.60;;;;;;5069888;28;20056;-77
2022/04/16 12:40:22;;;;;;;3.75;0.73;;;17.80;49.90;;;;;;5030501;28;20049;-77
2022/04/16 12:42:49;;;;;;;3.92;1.00;;;17.70;51.50;;;;;;5028888;28;20048;-77
2022/04/16 12:45:15;;;;;;;2.88;1.02;;;17.70;52.60;;;;;;5049161;28;20045;-77
2022/04/16 12:47:40;;;;;;;3.47;0.80;;;17.80;52.80;;;;;;5050789;28;20393;-77
2022/04/16 12:50:06;;;;;;;2.55;0.77;;;17.90;53.80;;;;;;5055054;28;20133;-77
2022/04/16 12:52:34;;;;;;;1.83;0.75;;;17.90;54.00;;;;;;5053907;28;20437;-77
2022/04/16 12:54:59;;;;;;;2.42;0.82;;;17.90;54.00;;;;;;5050496;28;20060;-77
2022/04/16 12:57:25;;;;;;;1.60;0.77;;;18.00;53.90;;;;;;5049589;28;20045;-77
2022/04/16 12:59:50;;;;;;;2.22;0.88;;;18.00;53.20;;;;;;5029819;28;20147;-77
2022/04/16 13:02:16;;;;;;;3.22;0.90;;;18.00;52.80;;;;;;5039400;28;20055;-77
2022/04/16 13:04:42;;;;;;;2.67;0.90;;;18.00;51.20;;;;;;5049743;28;20580;-77